Time;durP1;ratioP1;P1;durP2;ratioP2;P2;SDS_P1;SDS_P2;PMS_P1;PMS_P2;Temp;Humidity;BMP_temperature;BMP_pressure;BME280_temperature;BME280_humidity;BME280_pressure;Samples;Min_cycle;Max_cycle;Signal;HPM_P1;HPM_P2
2022/03/28 00:00:25;;;;;;;5.60;2.63;;;6.70;99.90;;;;;;5035268;28;20051;-88
2022/03/28 00:02:51;;;;;;;4.95;2.80;;;6.70;99.90;;;;;;5035622;28;20534;-89
2022/03/28 00:05:17;;;;;;;4.78;2.80;;;6.60;99.90;;;;;;5035561;28;20045;-89
2022/03/28 00:07:44;;;;;;;3.88;2.00;;;6.60;99.90;;;;;;5035580;28;20094;-91
2022/03/28 00:10:12;;;;;;;6.70;3.72;;;6.60;99.90;;;;;;5055990;28;20122;-90
2022/03/28 00:12:40;;;;;;;4.45;2.38;;;6.50;99.90;;;;;;5039443;28;20063;-90
2022/03/28 00:15:07;;;;;;;6.28;1.95;;;6.50;99.90;;;;;;5056902;28;20397;-89
2022/03/28 00:17:33;;;;;;;4.65;1.83;;;6.50;99.90;;;;;;5055786;28;20067;-90
2022/03/28 00:20:00;;;;;;;4.63;1.63;;;6.60;99.90;;;;;;5038933;28;20044;-91
2022/03/28 00:22:25;;;;;;;4.15;1.95;;;6.50;99.90;;;;;;5057213;28;20076;-90
2022/03/28 00:24:51;;;;;;;2.72;1.45;;;6.40;99.90;;;;;;5039058;28;20064;-91
2022/03/28 00:27:18;;;;;;;5.57;2.00;;;6.30;99.90;;;;;;5038844;28;20403;-91
2022/03/28 00:29:44;;;;;;;3.33;1.75;;;6.20;99.90;;;;;;5038691;28;20392;-90
2022/03/28 00:32:10;;;;;;;4.05;1.63;;;6.10;99.90;;;;;;5056598;28;20052;-90
2022/03/28 00:34:37;;;;;;;3.55;1.58;;;6.00;99.90;;;;;;5039101;28;20116;-89
2022/03/28 00:37:04;;;;;;;2.85;1.23;;;6.20;99.90;;;;;;5038931;28;20075;-90
2022/03/28 00:39:30;;;;;;;3.33;1.25;;;6.20;99.90;;;;;;5056491;28;20120;-90
2022/03/28 00:41:56;;;;;;;2.78;1.17;;;6.20;99.90;;;;;;5055319;28;20122;-91
2022/03/28 00:44:22;;;;;;;4.90;1.80;;;6.10;99.90;;;;;;5038583;28;20111;-91
2022/03/28 00:46:48;;;;;;;4.30;1.70;;;6.10;99.90;;;;;;5038752;28;20049;-90
2022/03/28 00:49:14;;;;;;;4.22;1.83;;;6.10;99.90;;;;;;5055319;28;20072;-90
2022/03/28 00:51:40;;;;;;;3.78;1.75;;;6.10;99.90;;;;;;5056437;28;20130;-90
2022/03/28 00:54:07;;;;;;;3.78;1.60;;;6.10;99.90;;;;;;5056112;28;20136;-91
2022/03/28 00:56:33;;;;;;;5.45;1.73;;;6.10;99.90;;;;;;5038356;28;20052;-89
2022/03/28 00:58:59;;;;;;;5.07;2.00;;;6.10;99.90;;;;;;5055006;28;20566;-89
2022/03/28 01:01:26;;;;;;;5.57;2.53;;;6.10;99.90;;;;;;5056186;28;20084;-91
2022/03/28 01:03:52;;;;;;;5.78;2.38;;;6.00;99.90;;;;;;5054901;28;20080;-90
2022/03/28 01:06:17;;;;;;;4.70;1.90;;;6.00;99.90;;;;;;5038356;28;20107;-90
2022/03/28 01:08:43;;;;;;;4.78;2.35;;;6.10;99.90;;;;;;5054680;28;20399;-90
2022/03/28 01:11:09;;;;;;;3.95;1.75;;;6.10;99.90;;;;;;5054917;28;20120;-90
2022/03/28 01:13:37;;;;;;;4.03;1.85;;;6.20;99.90;;;;;;5055803;28;20037;-90
2022/03/28 01:16:04;;;;;;;4.03;1.95;;;6.30;99.90;;;;;;5038191;28;20072;-89
2022/03/28 01:18:30;;;;;;;4.82;1.63;;;6.30;99.90;;;;;;5054290;28;20083;-91
2022/03/28 01:20:59;;;;;;;3.63;1.70;;;6.30;99.90;;;;;;5054289;28;20051;-90
2022/03/28 01:23:26;;;;;;;4.63;1.67;;;6.30;99.90;;;;;;5055703;28;20450;-90
2022/03/28 01:25:52;;;;;;;5.40;1.60;;;6.30;99.90;;;;;;5038118;28;20049;-89
2022/03/28 01:28:23;;;;;;;3.53;1.65;;;6.30;99.90;;;;;;5054753;28;20400;-90
2022/03/28 01:30:50;;;;;;;4.88;2.08;;;6.20;99.90;;;;;;5038183;28;20047;-91
2022/03/28 01:33:16;;;;;;;4.68;2.33;;;6.20;99.90;;;;;;5054152;28;20045;-90
2022/03/28 01:35:44;;;;;;;5.35;1.70;;;6.20;99.90;;;;;;5038017;28;20053;-90
2022/03/28 01:38:15;;;;;;;3.50;2.05;;;6.30;99.90;;;;;;5037676;28;20045;-90
2022/03/28 01:40:43;;;;;;;7.18;2.65;;;6.30;99.90;;;;;;5055490;28;20045;-91
2022/03/28 01:43:10;;;;;;;3.80;1.80;;;6.30;99.90;;;;;;5037711;28;20124;-90
2022/03/28 01:45:35;;;;;;;5.38;1.65;;;6.30;99.90;;;;;;5037414;28;20168;-91
2022/03/28 01:48:02;;;;;;;2.25;1.30;;;6.20;99.90;;;;;;5037328;28;20480;-90
2022/03/28 01:50:28;;;;;;;3.20;1.48;;;6.20;99.90;;;;;;5037528;28;20048;-90
2022/03/28 01:52:54;;;;;;;2.88;1.27;;;6.20;99.90;;;;;;5037310;28;20446;-90
2022/03/28 01:55:20;;;;;;;2.95;1.48;;;6.20;99.90;;;;;;5055125;28;20045;-89
2022/03/28 01:57:45;;;;;;;3.58;1.27;;;6.20;99.90;;;;;;5053305;28;20072;-90
2022/03/28 02:00:19;;;;;;;3.88;1.45;;;6.20;99.90;;;;;;5037170;28;20049;-89
2022/03/28 02:02:48;;;;;;;2.58;1.38;;;6.10;99.90;;;;;;5036989;28;20430;-90
2022/03/28 02:05:15;;;;;;;5.60;1.92;;;6.10;99.90;;;;;;5053863;28;20504;-89
2022/03/28 02:07:44;;;;;;;3.17;1.90;;;6.00;99.90;;;;;;5054807;28;20041;-90
2022/03/28 02:10:13;;;;;;;3.70;2.35;;;6.00;99.90;;;;;;5053462;28;20059;-91
2022/03/28 02:12:38;;;;;;;4.22;2.30;;;6.00;99.90;;;;;;5036999;28;20052;-91
2022/03/28 02:15:10;;;;;;;3.83;2.20;;;6.00;99.90;;;;;;5037227;28;20053;-90
2022/03/28 02:17:36;;;;;;;5.10;2.20;;;6.00;99.90;;;;;;5036942;28;20041;-91
2022/03/28 02:20:05;;;;;;;4.53;2.47;;;6.00;99.90;;;;;;5053732;28;20048;-89
2022/03/28 02:22:35;;;;;;;5.78;2.90;;;6.00;99.90;;;;;;5054508;28;20116;-89
2022/03/28 02:25:01;;;;;;;5.35;2.40;;;6.00;99.90;;;;;;5036576;28;20499;-90
2022/03/28 02:27:27;;;;;;;3.67;2.40;;;6.00;99.90;;;;;;5054342;28;20132;-90
2022/03/28 02:29:53;;;;;;;6.18;3.10;;;5.90;99.90;;;;;;5054354;28;20124;-89
2022/03/28 02:32:19;;;;;;;8.10;2.40;;;5.80;99.90;;;;;;5035944;28;20083;-90
2022/03/28 02:34:44;;;;;;;5.15;2.95;;;5.90;99.90;;;;;;5054329;28;20040;-91
2022/03/28 02:37:10;;;;;;;5.80;2.95;;;5.90;99.90;;;;;;5036579;28;20071;-89
2022/03/28 02:39:36;;;;;;;5.60;3.13;;;5.90;99.90;;;;;;5036402;28;20045;-91
2022/03/28 02:42:03;;;;;;;4.90;2.38;;;5.90;99.90;;;;;;5054097;28;20059;-90
2022/03/28 02:44:29;;;;;;;5.88;2.80;;;5.90;99.90;;;;;;5054024;28;20358;-89
2022/03/28 02:46:54;;;;;;;6.90;3.20;;;5.90;99.90;;;;;;5036161;28;20611;-89
2022/03/28 02:49:20;;;;;;;6.53;3.45;;;5.90;99.90;;;;;;5036206;28;20044;-89
2022/03/28 02:51:46;;;;;;;4.72;2.28;;;5.90;99.90;;;;;;5054045;28;20052;-89
2022/03/28 02:54:12;;;;;;;5.82;2.88;;;6.00;99.90;;;;;;5053053;28;20061;-90
2022/03/28 02:56:37;;;;;;;7.57;2.95;;;5.90;99.90;;;;;;5035924;28;20149;-89
2022/03/28 02:59:03;;;;;;;5.05;2.80;;;5.90;99.90;;;;;;5036179;28;20111;-89
2022/03/28 03:01:29;;;;;;;5.10;3.25;;;5.90;99.90;;;;;;5053921;28;20072;-89
2022/03/28 03:03:54;;;;;;;5.72;3.25;;;5.90;99.90;;;;;;5054019;28;20548;-90
2022/03/28 03:06:20;;;;;;;5.95;3.58;;;5.90;99.90;;;;;;5053775;28;20396;-89
2022/03/28 03:08:46;;;;;;;4.53;3.05;;;5.90;99.90;;;;;;5053090;28;20129;-89
2022/03/28 03:11:11;;;;;;;4.38;3.10;;;5.90;99.90;;;;;;5036148;28;20120;-90
2022/03/28 03:13:37;;;;;;;5.00;2.97;;;5.90;99.90;;;;;;5035894;28;20114;-90
2022/03/28 03:16:06;;;;;;;5.18;3.50;;;6.00;99.90;;;;;;5053796;28;20052;-90
2022/03/28 03:18:32;;;;;;;6.53;3.10;;;5.90;99.90;;;;;;5036104;28;20487;-90
2022/03/28 03:20:59;;;;;;;7.30;3.05;;;5.90;99.90;;;;;;5035939;28;20059;-90
2022/03/28 03:23:26;;;;;;;5.45;3.25;;;5.90;99.90;;;;;;5035744;28;20461;-89
2022/03/28 03:25:51;;;;;;;4.90;2.90;;;5.90;99.90;;;;;;5035931;28;20052;-90
2022/03/28 03:28:17;;;;;;;6.28;3.53;;;5.90;99.90;;;;;;5053503;28;20507;-90
2022/03/28 03:30:43;;;;;;;6.00;3.50;;;5.90;99.90;;;;;;5053676;28;20041;-90
2022/03/28 03:33:09;;;;;;;6.57;3.63;;;5.90;99.90;;;;;;5053544;28;20056;-90
2022/03/28 03:35:34;;;;;;;4.80;3.03;;;6.00;99.90;;;;;;5052487;28;20045;-90
2022/03/28 03:38:00;;;;;;;4.68;3.03;;;6.00;99.90;;;;;;5053802;28;20045;-90
2022/03/28 03:40:26;;;;;;;6.00;3.25;;;6.10;99.90;;;;;;5035331;28;20488;-89
2022/03/28 03:42:52;;;;;;;5.85;3.40;;;6.10;99.90;;;;;;5037664;28;20126;-89
2022/03/28 03:45:17;;;;;;;5.55;2.90;;;6.10;99.90;;;;;;5039601;28;20055;-88
2022/03/28 03:47:43;;;;;;;5.28;2.67;;;6.00;99.90;;;;;;5039807;28;20103;-88
2022/03/28 03:50:10;;;;;;;6.15;2.85;;;6.10;99.90;;;;;;5039477;28;20399;-89
2022/03/28 03:52:36;;;;;;;5.13;3.28;;;6.10;99.90;;;;;;5039598;28;20056;-89
2022/03/28 03:55:01;;;;;;;5.90;3.20;;;6.10;99.90;;;;;;5039481;28;20045;-88
2022/03/28 03:57:27;;;;;;;5.85;3.10;;;6.00;99.90;;;;;;5048907;28;20458;-88
2022/03/28 03:59:53;;;;;;;5.60;3.60;;;6.00;99.90;;;;;;5059214;28;20048;-88
2022/03/28 04:02:18;;;;;;;5.47;3.72;;;6.00;99.90;;;;;;5059236;28;20123;-89
2022/03/28 04:04:44;;;;;;;5.20;3.03;;;6.00;99.90;;;;;;5059244;28;20044;-89
2022/03/28 04:07:10;;;;;;;5.70;2.72;;;6.00;99.90;;;;;;5058993;28;20049;-89
2022/03/28 04:09:36;;;;;;;6.47;3.20;;;6.00;99.90;;;;;;5059244;28;20162;-89
2022/03/28 04:12:02;;;;;;;4.40;2.78;;;6.10;99.90;;;;;;5058937;28;20045;-88
2022/03/28 04:14:28;;;;;;;5.55;2.90;;;6.00;99.90;;;;;;5059701;28;20125;-89
2022/03/28 04:16:53;;;;;;;5.05;2.88;;;5.90;99.90;;;;;;5076814;28;20483;-90
2022/03/28 04:19:19;;;;;;;5.05;3.03;;;6.00;99.90;;;;;;5059147;28;20537;-90
2022/03/28 04:21:46;;;;;;;5.82;3.15;;;6.00;99.90;;;;;;5076724;28;20041;-89
2022/03/28 04:24:12;;;;;;;4.65;2.60;;;6.00;99.90;;;;;;5058709;28;20045;-90
2022/03/28 04:26:37;;;;;;;5.50;2.78;;;5.90;99.90;;;;;;5058486;28;20058;-89
2022/03/28 04:29:03;;;;;;;7.18;2.63;;;5.80;99.90;;;;;;5076717;28;20043;-89
2022/03/28 04:31:29;;;;;;;6.60;3.17;;;5.80;99.90;;;;;;5059019;28;20040;-89
2022/03/28 04:33:54;;;;;;;6.60;3.47;;;5.70;99.90;;;;;;5076570;28;20148;-88
2022/03/28 04:36:22;;;;;;;9.18;4.38;;;5.70;99.90;;;;;;5058335;28;20049;-88
2022/03/28 04:38:47;;;;;;;7.38;3.83;;;5.70;99.90;;;;;;5076373;28;20125;-89
2022/03/28 04:41:13;;;;;;;7.43;3.35;;;5.70;99.90;;;;;;5058591;28;20074;-89
2022/03/28 04:43:38;;;;;;;7.95;3.50;;;5.70;99.90;;;;;;5076394;28;20480;-90
2022/03/28 04:46:04;;;;;;;7.05;3.08;;;5.70;99.90;;;;;;5076339;28;20049;-89
2022/03/28 04:48:30;;;;;;;5.70;3.30;;;5.80;99.90;;;;;;5058594;28;20045;-89
2022/03/28 04:50:55;;;;;;;5.97;2.85;;;5.70;99.90;;;;;;5076372;28;20094;-89
2022/03/28 04:53:21;;;;;;;5.50;2.38;;;5.60;99.90;;;;;;5057865;28;20114;-89
2022/03/28 04:55:47;;;;;;;4.80;2.70;;;5.60;99.90;;;;;;5057867;28;20047;-89
2022/03/28 04:58:12;;;;;;;5.70;3.40;;;5.60;99.90;;;;;;5059747;28;20063;-89
2022/03/28 05:00:38;;;;;;;5.38;3.08;;;5.60;99.90;;;;;;5055942;28;20073;-89
2022/03/28 05:03:04;;;;;;;6.60;3.67;;;5.50;99.90;;;;;;5038259;28;20476;-89
2022/03/28 05:05:30;;;;;;;6.97;3.65;;;5.60;99.90;;;;;;5055911;28;20116;-89
2022/03/28 05:07:56;;;;;;;6.28;3.72;;;5.50;99.90;;;;;;5038193;28;20160;-90
2022/03/28 05:10:21;;;;;;;6.13;3.05;;;5.60;99.90;;;;;;5038101;28;20068;-89
2022/03/28 05:12:47;;;;;;;7.85;4.03;;;5.60;99.90;;;;;;5037962;28;20041;-88
2022/03/28 05:15:13;;;;;;;6.47;3.40;;;5.60;99.90;;;;;;5037941;28;20076;-89
2022/03/28 05:17:40;;;;;;;7.70;4.05;;;5.60;99.90;;;;;;5055638;28;20391;-88
2022/03/28 05:20:08;;;;;;;9.48;4.57;;;5.60;99.90;;;;;;5056025;28;20491;-89
2022/03/28 05:22:34;;;;;;;8.48;4.40;;;5.60;99.90;;;;;;5037625;28;20102;-89
2022/03/28 05:24:59;;;;;;;11.10;4.55;;;5.70;99.90;;;;;;5037395;28;20124;-89
2022/03/28 05:27:25;;;;;;;8.35;4.68;;;5.70;99.90;;;;;;5037310;28;20480;-89
2022/03/28 05:29:51;;;;;;;9.15;5.45;;;5.70;99.90;;;;;;5055030;28;20044;-91
2022/03/28 05:32:17;;;;;;;8.52;5.30;;;5.80;99.90;;;;;;5036344;28;20049;-88
2022/03/28 05:34:43;;;;;;;10.07;5.97;;;5.80;99.90;;;;;;5054948;28;20033;-89
2022/03/28 05:37:14;;;;;;;9.45;5.68;;;5.70;99.90;;;;;;5037445;28;20404;-89
2022/03/28 05:39:40;;;;;;;9.02;5.22;;;5.70;99.90;;;;;;5037329;28;20088;-89
2022/03/28 05:42:10;;;;;;;9.23;5.55;;;5.70;99.90;;;;;;5055022;28;20049;-88
2022/03/28 05:44:37;;;;;;;9.40;5.93;;;5.70;99.90;;;;;;5037139;28;20463;-88
2022/03/28 05:47:03;;;;;;;8.80;5.75;;;5.70;99.90;;;;;;5037232;28;20049;-88
2022/03/28 05:49:29;;;;;;;9.30;5.82;;;5.70;99.90;;;;;;5036980;28;20049;-89
2022/03/28 05:51:55;;;;;;;9.15;5.80;;;5.70;99.90;;;;;;5036761;28;20056;-88
2022/03/28 05:54:21;;;;;;;8.45;5.53;;;5.70;99.90;;;;;;5037152;28;20049;-89
2022/03/28 05:56:48;;;;;;;7.53;5.55;;;5.70;99.90;;;;;;5036799;28;20089;-90
2022/03/28 05:59:14;;;;;;;9.02;5.38;;;5.80;99.90;;;;;;5053617;28;20051;-89
2022/03/28 06:01:40;;;;;;;7.63;4.90;;;5.90;99.90;;;;;;5036748;28;20093;-89
2022/03/28 06:04:05;;;;;;;7.93;4.72;;;5.80;99.90;;;;;;5036848;28;20052;-88
2022/03/28 06:06:32;;;;;;;8.10;5.60;;;5.90;99.90;;;;;;5035854;28;20076;-90
2022/03/28 06:08:58;;;;;;;7.30;4.85;;;5.90;99.90;;;;;;5036787;28;20072;-90
2022/03/28 06:11:23;;;;;;;7.55;5.15;;;6.00;99.90;;;;;;5036749;28;20079;-91
2022/03/28 06:13:49;;;;;;;7.80;5.15;;;5.90;99.90;;;;;;5054392;28;20056;-90
2022/03/28 06:16:15;;;;;;;8.65;5.20;;;5.80;99.90;;;;;;5036275;28;20053;-88
2022/03/28 06:18:41;;;;;;;8.13;5.50;;;5.80;99.90;;;;;;5036833;28;20071;-90
2022/03/28 06:21:07;;;;;;;8.35;6.00;;;5.80;99.90;;;;;;5036331;28;20036;-89
2022/03/28 06:23:34;;;;;;;9.30;5.72;;;5.80;99.90;;;;;;5036485;28;20469;-89
2022/03/28 06:26:00;;;;;;;9.18;5.68;;;5.90;99.90;;;;;;5054089;28;20057;-89
2022/03/28 06:28:25;;;;;;;9.98;5.85;;;5.90;99.90;;;;;;5054307;28;20044;-90
2022/03/28 06:30:51;;;;;;;9.23;6.30;;;5.90;99.90;;;;;;5036400;28;20045;-90
2022/03/28 06:33:17;;;;;;;9.68;6.75;;;5.90;99.90;;;;;;5036223;28;20068;-90
2022/03/28 06:35:43;;;;;;;9.70;6.10;;;6.00;99.90;;;;;;5036063;28;20123;-90
2022/03/28 06:38:09;;;;;;;10.57;7.03;;;6.00;99.90;;;;;;5054020;28;20428;-90
2022/03/28 06:40:35;;;;;;;9.48;6.53;;;6.00;99.90;;;;;;5054003;28;20044;-91
2022/03/28 06:43:01;;;;;;;11.65;6.63;;;6.00;99.90;;;;;;5036628;28;20041;-88
2022/03/28 06:45:26;;;;;;;8.82;6.15;;;6.00;99.90;;;;;;5053910;28;20439;-93
2022/03/28 06:47:52;;;;;;;9.98;6.72;;;6.00;99.90;;;;;;5053914;28;20057;-91
2022/03/28 06:50:20;;;;;;;14.43;6.72;;;6.10;99.90;;;;;;5036070;28;20051;-90
2022/03/28 06:52:46;;;;;;;10.93;7.10;;;6.10;99.90;;;;;;5054093;28;20103;-85
2022/03/28 06:55:12;;;;;;;13.52;7.40;;;6.10;99.90;;;;;;5036326;28;20400;-94
2022/03/28 06:57:38;;;;;;;12.48;7.88;;;6.20;99.90;;;;;;5052898;28;20492;-91
2022/03/28 07:00:06;;;;;;;11.40;7.68;;;6.20;99.90;;;;;;5035885;28;20067;-89
2022/03/28 07:02:32;;;;;;;13.68;8.30;;;6.20;99.90;;;;;;5052493;28;20087;-94
2022/03/28 07:04:57;;;;;;;12.82;7.63;;;6.20;99.90;;;;;;5053359;28;20049;-87
2022/03/28 07:07:24;;;;;;;10.80;7.85;;;6.20;99.90;;;;;;5053517;28;20037;-88
2022/03/28 07:09:50;;;;;;;12.27;8.30;;;6.30;99.90;;;;;;5035419;28;20052;-88
2022/03/28 07:12:16;;;;;;;12.07;7.78;;;6.30;99.90;;;;;;5035665;28;20094;-94
2022/03/28 07:14:42;;;;;;;11.00;7.72;;;6.30;99.90;;;;;;5036438;28;20076;-92
2022/03/28 07:17:09;;;;;;;12.60;7.72;;;6.30;99.90;;;;;;5035655;28;20045;-90
2022/03/28 07:19:36;;;;;;;12.68;8.02;;;6.40;99.90;;;;;;5035996;28;20511;-94
2022/03/28 07:22:03;;;;;;;11.95;8.23;;;6.40;99.90;;;;;;5053845;28;20052;-93
2022/03/28 07:24:28;;;;;;;11.63;7.40;;;6.40;99.90;;;;;;5036751;28;20047;-94
2022/03/28 07:26:54;;;;;;;11.68;7.32;;;6.50;99.90;;;;;;5035778;28;20049;-91
2022/03/28 07:29:20;;;;;;;12.20;8.45;;;6.50;99.90;;;;;;5035853;28;20043;-92
2022/03/28 07:31:49;;;;;;;14.23;8.10;;;6.50;99.90;;;;;;5036119;28;20163;-93
2022/03/28 07:34:30;;;;;;;10.48;6.78;;;6.50;99.90;;;;;;5034514;28;20544;-94
2022/03/28 07:36:57;;;;;;;12.48;7.30;;;6.60;99.90;;;;;;5032802;28;20128;-92
2022/03/28 07:39:23;;;;;;;11.43;7.47;;;6.60;99.90;;;;;;5033195;28;20060;-93
2022/03/28 07:41:49;;;;;;;12.38;7.63;;;6.60;99.90;;;;;;5036537;28;20049;-93
2022/03/28 07:44:15;;;;;;;10.75;7.00;;;6.60;99.90;;;;;;5043021;28;20045;-94
2022/03/28 07:46:43;;;;;;;10.25;7.25;;;6.60;99.90;;;;;;5015659;28;20385;-91
2022/03/28 07:49:09;;;;;;;11.63;6.75;;;6.70;99.90;;;;;;5027271;28;20056;-92
2022/03/28 07:51:35;;;;;;;10.80;7.25;;;6.70;99.90;;;;;;5043833;28;20052;-93
2022/03/28 07:54:01;;;;;;;11.55;8.75;;;6.70;99.90;;;;;;5038351;28;20049;-93
2022/03/28 07:56:27;;;;;;;13.02;8.02;;;6.70;99.90;;;;;;5043746;28;20103;-93
2022/03/28 07:58:53;;;;;;;12.13;8.43;;;6.70;99.90;;;;;;5074011;28;20040;-93
2022/03/28 08:01:18;;;;;;;11.50;8.80;;;6.70;99.90;;;;;;5079049;28;20052;-91
2022/03/28 08:03:44;;;;;;;12.27;7.55;;;6.80;99.90;;;;;;5073668;28;20384;-95
2022/03/28 08:06:10;;;;;;;11.80;7.70;;;6.70;99.90;;;;;;5066645;28;20048;-89
2022/03/28 08:08:36;;;;;;;12.23;7.78;;;6.70;99.90;;;;;;5071801;28;20128;-94
2022/03/28 08:11:04;;;;;;;14.02;8.05;;;6.80;99.90;;;;;;5071878;28;20423;-93
2022/03/28 08:13:29;;;;;;;10.95;7.63;;;6.80;99.90;;;;;;5086549;28;20044;-94
2022/03/28 08:15:55;;;;;;;12.20;8.80;;;6.90;99.90;;;;;;5063713;28;20380;-90
2022/03/28 08:18:21;;;;;;;11.45;7.53;;;6.90;99.90;;;;;;5069351;28;20127;-91
2022/03/28 08:20:46;;;;;;;13.27;7.93;;;7.00;99.90;;;;;;5080254;28;20079;-93
2022/03/28 08:23:14;;;;;;;12.73;7.90;;;7.00;99.90;;;;;;5070219;28;20060;-92
2022/03/28 08:25:39;;;;;;;12.23;8.23;;;7.10;99.90;;;;;;5072237;28;20090;-93
2022/03/28 08:28:05;;;;;;;13.10;8.15;;;7.10;99.90;;;;;;5070538;28;20041;-91
2022/03/28 08:30:31;;;;;;;11.63;7.80;;;7.20;99.90;;;;;;5065152;28;20028;-91
2022/03/28 08:32:56;;;;;;;11.80;8.15;;;7.20;99.90;;;;;;5096799;28;20185;-92
2022/03/28 08:35:24;;;;;;;13.57;8.75;;;7.30;99.90;;;;;;5089697;28;20044;-91
2022/03/28 08:37:50;;;;;;;10.82;7.55;;;7.30;99.90;;;;;;5078082;28;20094;-91
2022/03/28 08:40:17;;;;;;;14.43;9.15;;;7.40;99.90;;;;;;5074221;28;20045;-92
2022/03/28 08:42:43;;;;;;;11.80;8.05;;;7.40;99.90;;;;;;5073913;28;20041;-91
2022/03/28 08:45:11;;;;;;;11.02;7.85;;;7.40;99.90;;;;;;5078386;28;20486;-91
2022/03/28 08:47:42;;;;;;;12.15;7.50;;;7.40;99.90;;;;;;5082971;28;20097;-91
2022/03/28 08:50:10;;;;;;;12.23;8.00;;;7.50;99.90;;;;;;5077995;28;20072;-94
2022/03/28 08:52:38;;;;;;;12.60;7.70;;;7.50;99.90;;;;;;5074440;28;20070;-93
2022/03/28 08:55:05;;;;;;;10.80;7.82;;;7.40;99.90;;;;;;5061868;28;20554;-91
2022/03/28 08:57:31;;;;;;;12.60;8.65;;;7.40;99.90;;;;;;5068911;28;20060;-92
2022/03/28 08:59:58;;;;;;;11.70;8.57;;;7.50;99.90;;;;;;5071906;28;20055;-93
2022/03/28 09:02:47;;;;;;;12.10;8.75;;;7.50;99.90;;;;;;5073994;28;20052;-90
2022/03/28 09:05:14;;;;;;;15.25;9.77;;;7.60;99.90;;;;;;5072418;28;20106;-91
2022/03/28 09:07:41;;;;;;;15.38;8.20;;;7.70;99.90;;;;;;5072697;28;20044;-92
2022/03/28 09:10:11;;;;;;;12.85;8.18;;;7.70;99.90;;;;;;5074077;28;20056;-92
2022/03/28 09:12:41;;;;;;;12.77;7.88;;;7.80;99.90;;;;;;5074366;28;20079;-90
2022/03/28 09:15:14;;;;;;;15.05;8.43;;;7.70;99.90;;;;;;5074375;28;20049;-91
2022/03/28 09:17:40;;;;;;;;;;;7.80;99.90;;;;;;5074820;28;20045;-91
2022/03/28 09:20:06;;;;;;;12.85;8.02;;;7.80;99.90;;;;;;5074570;28;19920;-94
2022/03/28 09:22:35;;;;;;;12.27;8.30;;;7.90;99.90;;;;;;5074992;28;20040;-94
2022/03/28 09:25:09;;;;;;;11.48;7.50;;;7.90;99.90;;;;;;5075669;28;20488;-92
2022/03/28 09:27:37;;;;;;;16.75;8.45;;;7.90;99.90;;;;;;5073961;28;20170;-89
2022/03/28 09:30:11;;;;;;;13.07;8.45;;;8.00;99.90;;;;;;5074144;28;20040;-91
2022/03/28 09:33:03;;;;;;;13.20;8.35;;;8.00;99.90;;;;;;5074443;28;20045;-94
2022/03/28 09:35:29;;;;;;;11.07;7.20;;;8.00;99.90;;;;;;5071160;28;20388;-93
2022/03/28 09:38:02;;;;;;;11.80;8.07;;;8.10;99.90;;;;;;5077791;28;20059;-94
2022/03/28 09:40:38;;;;;;;12.00;8.32;;;8.10;99.90;;;;;;5075471;28;20068;-88
2022/03/28 09:43:17;;;;;;;12.43;7.80;;;8.10;99.90;;;;;;5075555;28;20064;-85
2022/03/28 09:45:48;;;;;;;13.07;8.75;;;7.90;99.90;;;;;;5075005;28;20036;-85
2022/03/28 09:48:17;;;;;;;12.30;8.68;;;8.10;99.90;;;;;;5073688;28;20399;-86
2022/03/28 09:51:04;;;;;;;15.65;8.95;;;8.10;99.90;;;;;;5074833;28;20045;-84
2022/03/28 09:53:37;;;;;;;14.30;8.27;;;8.20;99.90;;;;;;5073503;28;20071;-90
2022/03/28 09:56:10;;;;;;;14.50;9.00;;;8.30;99.90;;;;;;5074323;28;20044;-93
2022/03/28 09:58:47;;;;;;;12.93;7.80;;;8.30;99.90;;;;;;5054848;28;20060;-91
2022/03/28 10:01:13;;;;;;;13.93;8.80;;;8.40;99.90;;;;;;5054650;28;20400;-87
2022/03/28 10:03:38;;;;;;;13.00;8.07;;;8.40;99.90;;;;;;5054381;28;20048;-89
2022/03/28 10:06:06;;;;;;;15.00;8.35;;;8.40;99.90;;;;;;5054121;28;20057;-93
2022/03/28 10:08:32;;;;;;;12.43;8.30;;;8.40;99.90;;;;;;5053322;28;20041;-89
2022/03/28 10:10:59;;;;;;;14.00;8.50;;;8.40;99.90;;;;;;5053395;28;20123;-91
2022/03/28 10:13:25;;;;;;;15.60;8.63;;;8.50;99.90;;;;;;5053323;28;20464;-86
2022/03/28 10:15:51;;;;;;;13.35;8.05;;;8.60;99.90;;;;;;5054117;28;20116;-88
2022/03/28 10:18:17;;;;;;;13.15;8.98;;;8.70;99.90;;;;;;5054488;28;20113;-91
2022/03/28 10:20:46;;;;;;;12.10;9.18;;;8.90;99.90;;;;;;5053305;28;20403;-90
2022/03/28 10:23:17;;;;;;;15.18;8.98;;;8.90;99.90;;;;;;5053159;28;20037;-84
2022/03/28 10:25:44;;;;;;;12.85;8.52;;;8.90;99.90;;;;;;5054502;28;20037;-92
2022/03/28 10:28:10;;;;;;;14.07;9.02;;;9.00;99.90;;;;;;5053297;28;20447;-94
2022/03/28 10:30:36;;;;;;;11.82;7.80;;;9.00;99.90;;;;;;5054536;28;20045;-96
2022/03/28 10:33:11;;;;;;;12.35;8.23;;;9.10;99.90;;;;;;5056670;28;20045;-89
2022/03/28 10:35:37;;;;;;;12.88;9.07;;;9.10;99.90;;;;;;5053177;28;20155;-90
2022/03/28 10:38:21;;;;;;;14.07;9.75;;;9.10;99.90;;;;;;5053791;28;20380;-93
2022/03/28 10:40:54;;;;;;;12.88;8.35;;;9.20;99.90;;;;;;5053418;28;20561;-85
2022/03/28 10:43:21;;;;;;;14.38;9.15;;;9.30;99.90;;;;;;5054192;28;20055;-91
2022/03/28 10:45:56;;;;;;;16.77;9.10;;;9.30;99.90;;;;;;5054456;28;20048;-85
2022/03/28 10:48:55;;;;;;;12.75;8.43;;;9.30;99.90;;;;;;5052485;28;20095;-91
2022/03/28 10:51:24;;;;;;;15.73;9.93;;;9.30;99.90;;;;;;5037488;28;20059;-87
2022/03/28 10:53:59;;;;;;;15.65;9.43;;;9.30;99.90;;;;;;5056270;28;20084;-86
2022/03/28 10:56:31;;;;;;;14.30;8.52;;;9.40;99.90;;;;;;5055442;28;20407;-89
2022/03/28 10:59:08;;;;;;;13.63;9.98;;;9.50;99.90;;;;;;5076199;28;20094;-92
2022/03/28 11:01:36;;;;;;;14.35;9.73;;;9.60;99.90;;;;;;5075661;28;20388;-88
2022/03/28 11:04:19;;;;;;;13.98;9.80;;;9.50;99.90;;;;;;5075547;28;20048;-87
2022/03/28 11:06:50;;;;;;;14.80;10.13;;;9.50;99.90;;;;;;5093925;28;20102;-92
2022/03/28 11:09:47;;;;;;;13.93;9.15;;;9.60;99.90;;;;;;5076117;28;20040;-91
2022/03/28 11:12:28;;;;;;;17.30;9.75;;;9.60;99.90;;;;;;5075621;28;20113;-91
2022/03/28 11:15:03;;;;;;;13.43;8.18;;;9.60;99.90;;;;;;5093462;28;20044;-87
2022/03/28 11:17:35;;;;;;;14.30;9.20;;;9.60;99.90;;;;;;5093442;28;20548;-84
2022/03/28 11:20:14;;;;;;;16.57;9.83;;;9.70;99.90;;;;;;5075585;28;20067;-85
2022/03/28 11:22:48;;;;;;;14.93;9.07;;;9.80;99.90;;;;;;5093299;28;20048;-87
2022/03/28 11:25:26;;;;;;;15.55;9.18;;;9.90;99.90;;;;;;5075298;28;20047;-83
2022/03/28 11:28:05;;;;;;;11.80;8.80;;;9.90;99.90;;;;;;5093730;28;20040;-89
2022/03/28 11:30:30;;;;;;;14.65;9.38;;;10.00;99.90;;;;;;5075991;28;20038;-86
2022/03/28 11:32:56;;;;;;;12.68;8.90;;;10.10;99.90;;;;;;5093678;28;20047;-90
2022/03/28 11:35:22;;;;;;;14.18;9.15;;;10.10;99.90;;;;;;5093639;28;20071;-88
2022/03/28 11:37:48;;;;;;;13.48;8.52;;;10.10;99.90;;;;;;5093548;28;20075;-89
2022/03/28 11:40:14;;;;;;;15.43;9.93;;;10.10;99.90;;;;;;5075115;28;20133;-86
2022/03/28 11:42:45;;;;;;;15.50;8.98;;;10.20;99.90;;;;;;5075587;28;20083;-91
2022/03/28 11:45:13;;;;;;;11.63;8.77;;;10.20;99.90;;;;;;5093576;28;20048;-87
2022/03/28 11:47:50;;;;;;;13.40;9.27;;;10.10;99.90;;;;;;5093352;28;20115;-81
2022/03/28 11:50:16;;;;;;;14.55;9.65;;;10.10;99.90;;;;;;5093416;28;20049;-88
2022/03/28 11:52:52;;;;;;;15.40;9.77;;;10.10;99.90;;;;;;5075576;28;20074;-82
2022/03/28 11:55:25;;;;;;;14.32;9.75;;;10.10;99.90;;;;;;5075425;28;20040;-86
2022/03/28 12:00:37;;;;;;;14.85;10.07;;;10.00;99.90;;;;;;5093248;28;20479;-92
2022/03/28 12:03:04;;;;;;;15.35;9.55;;;10.10;99.90;;;;;;5076152;28;20052;-92
2022/03/28 12:05:32;;;;;;;14.85;9.63;;;10.10;99.90;;;;;;5079400;28;20055;-91
2022/03/28 12:08:00;;;;;;;13.57;9.73;;;10.10;99.90;;;;;;5097604;28;20047;-92
2022/03/28 12:10:32;;;;;;;15.93;10.13;;;10.10;99.90;;;;;;5079477;28;20398;-92
2022/03/28 12:13:00;;;;;;;15.20;9.95;;;10.10;99.90;;;;;;5092285;28;20049;-90
2022/03/28 12:15:27;;;;;;;18.38;10.32;;;10.10;99.90;;;;;;5072585;28;20052;-91
2022/03/28 12:17:54;;;;;;;16.70;10.82;;;10.00;99.90;;;;;;5095651;28;20437;-92
2022/03/28 12:20:23;;;;;;;15.48;10.48;;;10.20;99.90;;;;;;5071403;28;20404;-91
2022/03/28 12:22:49;;;;;;;18.58;11.20;;;10.30;99.90;;;;;;5097392;28;20038;-92
2022/03/28 12:25:23;;;;;;;17.20;10.95;;;10.10;99.90;;;;;;5087158;28;20048;-93
2022/03/28 12:27:54;;;;;;;15.30;10.63;;;10.10;99.90;;;;;;5097011;28;20044;-92
2022/03/28 12:30:28;;;;;;;16.33;10.73;;;10.00;99.90;;;;;;5076645;28;20490;-90
2022/03/28 12:32:55;;;;;;;17.38;10.77;;;10.00;99.90;;;;;;5077315;28;20044;-90
2022/03/28 12:35:21;;;;;;;17.25;10.88;;;9.80;99.90;;;;;;5077428;28;20548;-91
2022/03/28 12:37:59;;;;;;;18.95;10.90;;;10.00;99.90;;;;;;5070741;28;20048;-90
2022/03/28 12:40:29;;;;;;;22.38;11.55;;;10.00;99.90;;;;;;5078381;28;20055;-90
2022/03/28 12:42:55;;;;;;;18.90;10.75;;;9.90;99.90;;;;;;5075197;28;20040;-91
2022/03/28 12:45:29;;;;;;;17.00;9.98;;;9.70;99.90;;;;;;5074581;28;20525;-91
2022/03/28 12:48:04;;;;;;;15.07;10.95;;;9.60;99.90;;;;;;5075867;28;20487;-91
2022/03/28 12:50:31;;;;;;;18.55;10.77;;;9.60;99.90;;;;;;5074849;28;20384;-92
2022/03/28 12:53:15;;;;;;;16.48;10.10;;;9.70;99.90;;;;;;5074715;28;20059;-91
2022/03/28 12:55:44;;;;;;;17.20;10.23;;;9.80;99.90;;;;;;5063005;28;20040;-93